sensor_id;sensor_type;location;lat;lon;timestamp;P1;durP1;ratioP1;P2;durP2;ratioP2
8450;SDS011;4262;50.980;13.892;2024-01-07T00:02:07;48.47;;;22.57;;
8450;SDS011;4262;50.980;13.892;2024-01-07T00:04:33;36.17;;;19.53;;
8450;SDS011;4262;50.980;13.892;2024-01-07T00:07:00;39.20;;;21.67;;
8450;SDS011;4262;50.980;13.892;2024-01-07T00:09:27;40.83;;;21.40;;
8450;SDS011;4262;50.980;13.892;2024-01-07T00:11:54;43.73;;;17.90;;
8450;SDS011;4262;50.980;13.892;2024-01-07T00:14:20;32.80;;;18.47;;
8450;SDS011;4262;50.980;13.892;2024-01-07T00:16:47;38.23;;;19.73;;
8450;SDS011;4262;50.980;13.892;2024-01-07T00:19:15;33.23;;;16.17;;
8450;SDS011;4262;50.980;13.892;2024-01-07T00:21:42;45.03;;;20.30;;
8450;SDS011;4262;50.980;13.892;2024-01-07T00:24:09;33.43;;;18.33;;
8450;SDS011;4262;50.980;13.892;2024-01-07T00:26:35;33.03;;;17.13;;
8450;SDS011;4262;50.980;13.892;2024-01-07T00:29:02;38.60;;;20.63;;
8450;SDS011;4262;50.980;13.892;2024-01-07T00:31:29;35.40;;;19.53;;
8450;SDS011;4262;50.980;13.892;2024-01-07T00:34:02;40.57;;;20.60;;
8450;SDS011;4262;50.980;13.892;2024-01-07T00:36:31;37.63;;;20.80;;
8450;SDS011;4262;50.980;13.892;2024-01-07T00:38:57;41.40;;;21.23;;
8450;SDS011;4262;50.980;13.892;2024-01-07T00:41:24;38.57;;;21.40;;
8450;SDS011;4262;50.980;13.892;2024-01-07T00:43:51;41.60;;;21.00;;
8450;SDS011;4262;50.980;13.892;2024-01-07T00:46:18;37.33;;;20.40;;
8450;SDS011;4262;50.980;13.892;2024-01-07T00:48:45;36.37;;;19.70;;
8450;SDS011;4262;50.980;13.892;2024-01-07T00:51:11;32.43;;;18.90;;
8450;SDS011;4262;50.980;13.892;2024-01-07T00:53:40;31.70;;;18.20;;
8450;SDS011;4262;50.980;13.892;2024-01-07T00:56:06;30.47;;;16.87;;
8450;SDS011;4262;50.980;13.892;2024-01-07T00:58:33;32.40;;;16.90;;
8450;SDS011;4262;50.980;13.892;2024-01-07T01:01:02;36.50;;;14.77;;
8450;SDS011;4262;50.980;13.892;2024-01-07T01:03:29;22.43;;;12.13;;
8450;SDS011;4262;50.980;13.892;2024-01-07T01:05:56;30.37;;;14.30;;
8450;SDS011;4262;50.980;13.892;2024-01-07T01:08:23;36.20;;;18.90;;
8450;SDS011;4262;50.980;13.892;2024-01-07T01:10:54;40.63;;;17.37;;
8450;SDS011;4262;50.980;13.892;2024-01-07T01:13:21;32.93;;;16.20;;
8450;SDS011;4262;50.980;13.892;2024-01-07T01:15:51;36.13;;;17.57;;
8450;SDS011;4262;50.980;13.892;2024-01-07T01:18:17;31.17;;;16.50;;
8450;SDS011;4262;50.980;13.892;2024-01-07T01:20:45;32.30;;;18.00;;
8450;SDS011;4262;50.980;13.892;2024-01-07T01:23:13;34.40;;;17.53;;
8450;SDS011;4262;50.980;13.892;2024-01-07T01:25:40;35.73;;;15.97;;
8450;SDS011;4262;50.980;13.892;2024-01-07T01:28:10;33.57;;;17.73;;
8450;SDS011;4262;50.980;13.892;2024-01-07T01:30:37;31.67;;;15.97;;
8450;SDS011;4262;50.980;13.892;2024-01-07T01:33:04;36.37;;;19.03;;
8450;SDS011;4262;50.980;13.892;2024-01-07T01:35:31;29.10;;;13.10;;
8450;SDS011;4262;50.980;13.892;2024-01-07T01:37:58;24.10;;;14.00;;
8450;SDS011;4262;50.980;13.892;2024-01-07T01:40:25;24.40;;;13.40;;
8450;SDS011;4262;50.980;13.892;2024-01-07T01:42:53;31.73;;;15.93;;
8450;SDS011;4262;50.980;13.892;2024-01-07T01:45:23;35.77;;;20.63;;
8450;SDS011;4262;50.980;13.892;2024-01-07T01:47:50;29.17;;;16.07;;
8450;SDS011;4262;50.980;13.892;2024-01-07T01:50:17;33.70;;;16.83;;
8450;SDS011;4262;50.980;13.892;2024-01-07T01:52:44;38.80;;;18.80;;
8450;SDS011;4262;50.980;13.892;2024-01-07T01:55:11;28.30;;;13.70;;
8450;SDS011;4262;50.980;13.892;2024-01-07T01:57:38;34.23;;;17.53;;
8450;SDS011;4262;50.980;13.892;2024-01-07T02:00:07;40.90;;;19.90;;
8450;SDS011;4262;50.980;13.892;2024-01-07T02:02:38;36.10;;;18.03;;
8450;SDS011;4262;50.980;13.892;2024-01-07T02:05:05;29.87;;;15.47;;
8450;SDS011;4262;50.980;13.892;2024-01-07T02:07:32;30.60;;;16.03;;
8450;SDS011;4262;50.980;13.892;2024-01-07T02:10:00;33.73;;;17.10;;
8450;SDS011;4262;50.980;13.892;2024-01-07T02:12:27;32.60;;;16.87;;
8450;SDS011;4262;50.980;13.892;2024-01-07T02:14:55;28.97;;;15.43;;
8450;SDS011;4262;50.980;13.892;2024-01-07T02:17:21;34.13;;;16.27;;
8450;SDS011;4262;50.980;13.892;2024-01-07T02:19:50;20.60;;;12.70;;
8450;SDS011;4262;50.980;13.892;2024-01-07T02:22:17;32.33;;;16.90;;
8450;SDS011;4262;50.980;13.892;2024-01-07T02:24:45;35.97;;;17.80;;
8450;SDS011;4262;50.980;13.892;2024-01-07T02:27:12;36.67;;;17.40;;
8450;SDS011;4262;50.980;13.892;2024-01-07T02:29:39;30.63;;;15.93;;
8450;SDS011;4262;50.980;13.892;2024-01-07T02:32:07;32.23;;;16.00;;
8450;SDS011;4262;50.980;13.892;2024-01-07T02:34:34;31.13;;;17.07;;
8450;SDS011;4262;50.980;13.892;2024-01-07T02:37:00;37.17;;;19.57;;
8450;SDS011;4262;50.980;13.892;2024-01-07T02:39:28;33.43;;;17.60;;
8450;SDS011;4262;50.980;13.892;2024-01-07T02:41:58;37.83;;;17.77;;
8450;SDS011;4262;50.980;13.892;2024-01-07T02:44:28;28.37;;;13.73;;
8450;SDS011;4262;50.980;13.892;2024-01-07T02:46:55;28.63;;;15.27;;
8450;SDS011;4262;50.980;13.892;2024-01-07T02:49:25;32.53;;;16.20;;
8450;SDS011;4262;50.980;13.892;2024-01-07T02:51:52;27.53;;;13.87;;
8450;SDS011;4262;50.980;13.892;2024-01-07T02:54:19;33.37;;;16.63;;
8450;SDS011;4262;50.980;13.892;2024-01-07T02:56:47;34.50;;;15.63;;
8450;SDS011;4262;50.980;13.892;2024-01-07T02:59:15;20.43;;;11.20;;
8450;SDS011;4262;50.980;13.892;2024-01-07T03:01:42;23.37;;;12.80;;
8450;SDS011;4262;50.980;13.892;2024-01-07T03:04:09;27.70;;;15.73;;
8450;SDS011;4262;50.980;13.892;2024-01-07T03:06:38;27.57;;;14.40;;
8450;SDS011;4262;50.980;13.892;2024-01-07T03:09:06;32.50;;;16.77;;
8450;SDS011;4262;50.980;13.892;2024-01-07T03:11:33;30.00;;;16.13;;
8450;SDS011;4262;50.980;13.892;2024-01-07T03:13:59;36.17;;;18.77;;
8450;SDS011;4262;50.980;13.892;2024-01-07T03:16:28;29.10;;;15.17;;
8450;SDS011;4262;50.980;13.892;2024-01-07T03:18:54;24.97;;;14.07;;
8450;SDS011;4262;50.980;13.892;2024-01-07T03:21:22;29.00;;;16.00;;
8450;SDS011;4262;50.980;13.892;2024-01-07T03:23:50;33.13;;;17.40;;
8450;SDS011;4262;50.980;13.892;2024-01-07T03:26:18;28.47;;;16.10;;
8450;SDS011;4262;50.980;13.892;2024-01-07T03:28:45;24.67;;;12.80;;
8450;SDS011;4262;50.980;13.892;2024-01-07T03:31:14;33.37;;;15.73;;
8450;SDS011;4262;50.980;13.892;2024-01-07T03:33:43;27.07;;;15.10;;
8450;SDS011;4262;50.980;13.892;2024-01-07T03:36:10;28.00;;;13.80;;
8450;SDS011;4262;50.980;13.892;2024-01-07T03:38:38;27.70;;;14.33;;
8450;SDS011;4262;50.980;13.892;2024-01-07T03:41:05;23.20;;;12.37;;
8450;SDS011;4262;50.980;13.892;2024-01-07T03:43:33;31.10;;;16.47;;
8450;SDS011;4262;50.980;13.892;2024-01-07T03:46:00;28.90;;;15.40;;
8450;SDS011;4262;50.980;13.892;2024-01-07T03:48:26;27.80;;;14.20;;
8450;SDS011;4262;50.980;13.892;2024-01-07T03:50:54;28.00;;;15.97;;
8450;SDS011;4262;50.980;13.892;2024-01-07T03:53:21;24.23;;;14.10;;
8450;SDS011;4262;50.980;13.892;2024-01-07T03:55:47;22.87;;;13.50;;
8450;SDS011;4262;50.980;13.892;2024-01-07T03:58:14;29.40;;;14.10;;
8450;SDS011;4262;50.980;13.892;2024-01-07T04:00:41;29.67;;;14.20;;
8450;SDS011;4262;50.980;13.892;2024-01-07T04:03:08;28.00;;;13.60;;
8450;SDS011;4262;50.980;13.892;2024-01-07T04:05:35;27.07;;;15.97;;
8450;SDS011;4262;50.980;13.892;2024-01-07T04:08:03;26.83;;;16.40;;
8450;SDS011;4262;50.980;13.892;2024-01-07T04:10:30;29.07;;;14.17;;
8450;SDS011;4262;50.980;13.892;2024-01-07T04:12:57;29.43;;;16.20;;
8450;SDS011;4262;50.980;13.892;2024-01-07T04:15:24;33.97;;;16.23;;
8450;SDS011;4262;50.980;13.892;2024-01-07T04:17:54;32.50;;;14.93;;
8450;SDS011;4262;50.980;13.892;2024-01-07T04:20:21;31.90;;;15.70;;
8450;SDS011;4262;50.980;13.892;2024-01-07T04:22:49;31.70;;;15.70;;
8450;SDS011;4262;50.980;13.892;2024-01-07T04:25:17;32.10;;;16.70;;
8450;SDS011;4262;50.980;13.892;2024-01-07T04:27:44;33.87;;;16.97;;
8450;SDS011;4262;50.980;13.892;2024-01-07T04:30:11;35.00;;;16.83;;
8450;SDS011;4262;50.980;13.892;2024-01-07T04:32:38;28.00;;;15.30;;
8450;SDS011;4262;50.980;13.892;2024-01-07T04:35:05;27.07;;;15.20;;
8450;SDS011;4262;50.980;13.892;2024-01-07T04:37:34;30.20;;;16.50;;
8450;SDS011;4262;50.980;13.892;2024-01-07T04:40:02;26.17;;;16.33;;
8450;SDS011;4262;50.980;13.892;2024-01-07T04:42:34;37.23;;;15.77;;
8450;SDS011;4262;50.980;13.892;2024-01-07T04:45:01;27.80;;;15.03;;
8450;SDS011;4262;50.980;13.892;2024-01-07T04:47:29;32.00;;;15.90;;
8450;SDS011;4262;50.980;13.892;2024-01-07T04:49:57;28.97;;;13.40;;
8450;SDS011;4262;50.980;13.892;2024-01-07T04:52:24;28.83;;;14.50;;
8450;SDS011;4262;50.980;13.892;2024-01-07T04:54:51;26.83;;;14.63;;
8450;SDS011;4262;50.980;13.892;2024-01-07T04:57:21;26.93;;;13.43;;
8450;SDS011;4262;50.980;13.892;2024-01-07T04:59:50;23.23;;;12.17;;
8450;SDS011;4262;50.980;13.892;2024-01-07T05:02:17;23.03;;;14.13;;
8450;SDS011;4262;50.980;13.892;2024-01-07T05:04:44;26.40;;;14.37;;
8450;SDS011;4262;50.980;13.892;2024-01-07T05:07:11;26.57;;;14.10;;
8450;SDS011;4262;50.980;13.892;2024-01-07T05:09:39;26.37;;;13.23;;
8450;SDS011;4262;50.980;13.892;2024-01-07T05:12:08;30.47;;;16.27;;
8450;SDS011;4262;50.980;13.892;2024-01-07T05:14:37;19.17;;;10.30;;
8450;SDS011;4262;50.980;13.892;2024-01-07T05:17:06;25.83;;;13.73;;
8450;SDS011;4262;50.980;13.892;2024-01-07T05:19:36;27.17;;;14.57;;
8450;SDS011;4262;50.980;13.892;2024-01-07T05:22:05;20.50;;;13.07;;
8450;SDS011;4262;50.980;13.892;2024-01-07T05:24:36;32.93;;;15.40;;
8450;SDS011;4262;50.980;13.892;2024-01-07T05:27:03;24.70;;;13.33;;
8450;SDS011;4262;50.980;13.892;2024-01-07T05:29:30;21.50;;;13.00;;
8450;SDS011;4262;50.980;13.892;2024-01-07T05:32:01;26.63;;;14.43;;
8450;SDS011;4262;50.980;13.892;2024-01-07T05:34:29;24.30;;;13.80;;
8450;SDS011;4262;50.980;13.892;2024-01-07T05:36:56;18.50;;;12.03;;
8450;SDS011;4262;50.980;13.892;2024-01-07T05:39:23;25.60;;;14.50;;
8450;SDS011;4262;50.980;13.892;2024-01-07T05:41:54;25.20;;;12.97;;
8450;SDS011;4262;50.980;13.892;2024-01-07T05:44:23;23.57;;;15.07;;
8450;SDS011;4262;50.980;13.892;2024-01-07T05:46:52;22.80;;;14.03;;
8450;SDS011;4262;50.980;13.892;2024-01-07T05:49:19;26.97;;;14.50;;
8450;SDS011;4262;50.980;13.892;2024-01-07T05:51:47;20.07;;;11.50;;
8450;SDS011;4262;50.980;13.892;2024-01-07T05:54:20;26.90;;;14.03;;
8450;SDS011;4262;50.980;13.892;2024-01-07T05:56:50;15.50;;;8.83;;
8450;SDS011;4262;50.980;13.892;2024-01-07T05:59:22;23.17;;;13.43;;
8450;SDS011;4262;50.980;13.892;2024-01-07T06:01:49;24.03;;;12.20;;
8450;SDS011;4262;50.980;13.892;2024-01-07T06:04:16;25.23;;;13.27;;
8450;SDS011;4262;50.980;13.892;2024-01-07T06:06:43;25.03;;;14.97;;
8450;SDS011;4262;50.980;13.892;2024-01-07T06:09:11;22.17;;;12.03;;
8450;SDS011;4262;50.980;13.892;2024-01-07T06:11:38;22.33;;;13.50;;
8450;SDS011;4262;50.980;13.892;2024-01-07T06:14:10;19.23;;;11.30;;
8450;SDS011;4262;50.980;13.892;2024-01-07T06:16:36;21.70;;;10.53;;
8450;SDS011;4262;50.980;13.892;2024-01-07T06:19:03;21.27;;;10.83;;
8450;SDS011;4262;50.980;13.892;2024-01-07T06:21:31;22.73;;;13.70;;
8450;SDS011;4262;50.980;13.892;2024-01-07T06:24:01;25.87;;;15.17;;
8450;SDS011;4262;50.980;13.892;2024-01-07T06:26:33;25.13;;;14.07;;
8450;SDS011;4262;50.980;13.892;2024-01-07T06:29:00;26.13;;;12.90;;
8450;SDS011;4262;50.980;13.892;2024-01-07T06:31:31;25.93;;;12.90;;
8450;SDS011;4262;50.980;13.892;2024-01-07T06:34:01;27.77;;;16.30;;
8450;SDS011;4262;50.980;13.892;2024-01-07T06:36:35;28.27;;;13.93;;
8450;SDS011;4262;50.980;13.892;2024-01-07T06:39:05;27.10;;;14.47;;
8450;SDS011;4262;50.980;13.892;2024-01-07T06:41:36;28.53;;;14.90;;
8450;SDS011;4262;50.980;13.892;2024-01-07T06:44:05;27.30;;;12.10;;
8450;SDS011;4262;50.980;13.892;2024-01-07T06:46:34;23.30;;;13.70;;
8450;SDS011;4262;50.980;13.892;2024-01-07T06:49:01;20.20;;;11.20;;
8450;SDS011;4262;50.980;13.892;2024-01-07T06:51:28;22.53;;;12.17;;
8450;SDS011;4262;50.980;13.892;2024-01-07T06:53:55;24.37;;;12.63;;
8450;SDS011;4262;50.980;13.892;2024-01-07T06:56:22;23.13;;;12.90;;
8450;SDS011;4262;50.980;13.892;2024-01-07T06:58:58;23.87;;;11.83;;
8450;SDS011;4262;50.980;13.892;2024-01-07T07:01:37;20.17;;;12.60;;
8450;SDS011;4262;50.980;13.892;2024-01-07T07:04:04;23.47;;;12.27;;
8450;SDS011;4262;50.980;13.892;2024-01-07T07:06:42;23.60;;;12.77;;
8450;SDS011;4262;50.980;13.892;2024-01-07T07:09:14;20.93;;;13.90;;
8450;SDS011;4262;50.980;13.892;2024-01-07T07:11:50;21.80;;;11.53;;
8450;SDS011;4262;50.980;13.892;2024-01-07T07:14:24;18.33;;;11.20;;
8450;SDS011;4262;50.980;13.892;2024-01-07T07:16:57;20.90;;;11.27;;
8450;SDS011;4262;50.980;13.892;2024-01-07T07:19:25;25.97;;;14.50;;
8450;SDS011;4262;50.980;13.892;2024-01-07T07:21:57;234.13;;;69.83;;
8450;SDS011;4262;50.980;13.892;2024-01-07T07:24:28;20.47;;;11.57;;
8450;SDS011;4262;50.980;13.892;2024-01-07T07:27:11;20.03;;;11.60;;
8450;SDS011;4262;50.980;13.892;2024-01-07T07:29:54;19.23;;;10.23;;
8450;SDS011;4262;50.980;13.892;2024-01-07T07:32:29;19.23;;;10.43;;
8450;SDS011;4262;50.980;13.892;2024-01-07T07:34:56;20.43;;;11.73;;
8450;SDS011;4262;50.980;13.892;2024-01-07T07:37:25;22.03;;;11.80;;
8450;SDS011;4262;50.980;13.892;2024-01-07T07:39:56;18.63;;;11.90;;
8450;SDS011;4262;50.980;13.892;2024-01-07T07:42:26;16.23;;;11.27;;
8450;SDS011;4262;50.980;13.892;2024-01-07T07:45:07;19.70;;;12.33;;
8450;SDS011;4262;50.980;13.892;2024-01-07T07:47:58;20.00;;;10.20;;
8450;SDS011;4262;50.980;13.892;2024-01-07T07:50:36;17.83;;;10.73;;
8450;SDS011;4262;50.980;13.892;2024-01-07T07:53:22;19.17;;;10.20;;
8450;SDS011;4262;50.980;13.892;2024-01-07T07:56:02;16.03;;;8.73;;
8450;SDS011;4262;50.980;13.892;2024-01-07T07:58:44;15.53;;;9.60;;
8450;SDS011;4262;50.980;13.892;2024-01-07T08:01:23;20.07;;;9.77;;
8450;SDS011;4262;50.980;13.892;2024-01-07T08:04:00;14.47;;;9.27;;
8450;SDS011;4262;50.980;13.892;2024-01-07T08:06:35;18.47;;;8.70;;
8450;SDS011;4262;50.980;13.892;2024-01-07T08:09:11;18.43;;;11.03;;
8450;SDS011;4262;50.980;13.892;2024-01-07T08:11:38;14.37;;;8.27;;
8450;SDS011;4262;50.980;13.892;2024-01-07T08:14:10;13.70;;;8.90;;
8450;SDS011;4262;50.980;13.892;2024-01-07T08:16:41;13.17;;;9.23;;
8450;SDS011;4262;50.980;13.892;2024-01-07T08:19:07;18.73;;;9.60;;
8450;SDS011;4262;50.980;13.892;2024-01-07T08:21:35;14.73;;;9.80;;
8450;SDS011;4262;50.980;13.892;2024-01-07T08:24:03;12.60;;;8.43;;
8450;SDS011;4262;50.980;13.892;2024-01-07T08:26:33;17.40;;;9.13;;
8450;SDS011;4262;50.980;13.892;2024-01-07T08:29:03;12.77;;;8.70;;
8450;SDS011;4262;50.980;13.892;2024-01-07T08:31:30;16.33;;;8.70;;
8450;SDS011;4262;50.980;13.892;2024-01-07T08:34:05;13.57;;;9.13;;
8450;SDS011;4262;50.980;13.892;2024-01-07T08:36:36;16.00;;;8.50;;
8450;SDS011;4262;50.980;13.892;2024-01-07T08:39:07;10.50;;;7.50;;
8450;SDS011;4262;50.980;13.892;2024-01-07T08:41:39;13.73;;;8.83;;
8450;SDS011;4262;50.980;13.892;2024-01-07T08:44:19;14.83;;;8.20;;
8450;SDS011;4262;50.980;13.892;2024-01-07T08:46:46;12.17;;;7.63;;
8450;SDS011;4262;50.980;13.892;2024-01-07T08:49:21;10.83;;;6.93;;
8450;SDS011;4262;50.980;13.892;2024-01-07T08:52:13;12.70;;;7.90;;
8450;SDS011;4262;50.980;13.892;2024-01-07T08:54:58;7.87;;;6.20;;
8450;SDS011;4262;50.980;13.892;2024-01-07T08:57:30;12.63;;;8.23;;
8450;SDS011;4262;50.980;13.892;2024-01-07T09:00:26;10.77;;;7.50;;
8450;SDS011;4262;50.980;13.892;2024-01-07T09:03:12;11.33;;;7.87;;
8450;SDS011;4262;50.980;13.892;2024-01-07T09:05:41;10.87;;;7.33;;
8450;SDS011;4262;50.980;13.892;2024-01-07T09:08:08;11.57;;;7.20;;
8450;SDS011;4262;50.980;13.892;2024-01-07T09:10:41;10.70;;;7.73;;
8450;SDS011;4262;50.980;13.892;2024-01-07T09:13:13;15.07;;;6.20;;
8450;SDS011;4262;50.980;13.892;2024-01-07T09:15:42;11.50;;;7.03;;
8450;SDS011;4262;50.980;13.892;2024-01-07T09:18:09;13.07;;;8.03;;
8450;SDS011;4262;50.980;13.892;2024-01-07T09:20:36;12.73;;;6.83;;
8450;SDS011;4262;50.980;13.892;2024-01-07T09:23:04;9.63;;;6.97;;
8450;SDS011;4262;50.980;13.892;2024-01-07T09:25:31;12.77;;;7.23;;
8450;SDS011;4262;50.980;13.892;2024-01-07T09:27:59;14.00;;;7.50;;
8450;SDS011;4262;50.980;13.892;2024-01-07T09:30:26;14.53;;;7.33;;
8450;SDS011;4262;50.980;13.892;2024-01-07T09:32:53;13.00;;;7.80;;
8450;SDS011;4262;50.980;13.892;2024-01-07T09:35:19;12.57;;;8.00;;
8450;SDS011;4262;50.980;13.892;2024-01-07T09:37:46;12.60;;;7.83;;
8450;SDS011;4262;50.980;13.892;2024-01-07T09:40:17;12.90;;;7.10;;
8450;SDS011;4262;50.980;13.892;2024-01-07T09:42:45;10.47;;;7.40;;
8450;SDS011;4262;50.980;13.892;2024-01-07T09:45:12;11.37;;;6.50;;
8450;SDS011;4262;50.980;13.892;2024-01-07T09:47:40;11.30;;;7.50;;
8450;SDS011;4262;50.980;13.892;2024-01-07T09:50:09;9.33;;;6.90;;
8450;SDS011;4262;50.980;13.892;2024-01-07T09:52:37;12.97;;;7.57;;
8450;SDS011;4262;50.980;13.892;2024-01-07T09:55:05;16.03;;;8.47;;
8450;SDS011;4262;50.980;13.892;2024-01-07T09:57:37;50.93;;;16.23;;
8450;SDS011;4262;50.980;13.892;2024-01-07T10:00:07;20.50;;;9.30;;
8450;SDS011;4262;50.980;13.892;2024-01-07T10:02:38;15.90;;;7.90;;
8450;SDS011;4262;50.980;13.892;2024-01-07T10:05:06;20.20;;;9.37;;
8450;SDS011;4262;50.980;13.892;2024-01-07T10:07:33;19.50;;;10.53;;
8450;SDS011;4262;50.980;13.892;2024-01-07T10:10:09;15.63;;;8.70;;
8450;SDS011;4262;50.980;13.892;2024-01-07T10:12:39;19.43;;;9.90;;
8450;SDS011;4262;50.980;13.892;2024-01-07T10:15:06;19.33;;;11.07;;
8450;SDS011;4262;50.980;13.892;2024-01-07T10:17:34;18.17;;;10.20;;
8450;SDS011;4262;50.980;13.892;2024-01-07T10:20:01;18.33;;;10.53;;
8450;SDS011;4262;50.980;13.892;2024-01-07T10:22:35;13.30;;;7.87;;
8450;SDS011;4262;50.980;13.892;2024-01-07T10:25:03;11.03;;;7.10;;
8450;SDS011;4262;50.980;13.892;2024-01-07T10:27:33;12.77;;;8.13;;
8450;SDS011;4262;50.980;13.892;2024-01-07T10:30:02;10.63;;;6.10;;
8450;SDS011;4262;50.980;13.892;2024-01-07T10:32:30;11.97;;;7.40;;
8450;SDS011;4262;50.980;13.892;2024-01-07T10:34:57;10.77;;;7.83;;
8450;SDS011;4262;50.980;13.892;2024-01-07T10:37:28;12.10;;;8.37;;
8450;SDS011;4262;50.980;13.892;2024-01-07T10:39:56;11.83;;;7.17;;
8450;SDS011;4262;50.980;13.892;2024-01-07T10:42:28;14.03;;;8.90;;
8450;SDS011;4262;50.980;13.892;2024-01-07T10:44:56;11.40;;;7.27;;
8450;SDS011;4262;50.980;13.892;2024-01-07T10:47:25;9.53;;;6.23;;
8450;SDS011;4262;50.980;13.892;2024-01-07T10:49:56;8.23;;;5.97;;
8450;SDS011;4262;50.980;13.892;2024-01-07T10:52:24;12.30;;;9.00;;
8450;SDS011;4262;50.980;13.892;2024-01-07T10:54:54;18.63;;;12.83;;
8450;SDS011;4262;50.980;13.892;2024-01-07T10:57:24;13.93;;;8.90;;
8450;SDS011;4262;50.980;13.892;2024-01-07T10:59:58;12.97;;;7.70;;
8450;SDS011;4262;50.980;13.892;2024-01-07T11:02:28;16.93;;;7.10;;
8450;SDS011;4262;50.980;13.892;2024-01-07T11:04:56;8.93;;;6.07;;
8450;SDS011;4262;50.980;13.892;2024-01-07T11:07:31;8.80;;;5.87;;
8450;SDS011;4262;50.980;13.892;2024-01-07T11:10:06;15.40;;;8.67;;
8450;SDS011;4262;50.980;13.892;2024-01-07T11:12:38;10.53;;;7.97;;
8450;SDS011;4262;50.980;13.892;2024-01-07T11:15:06;10.90;;;7.23;;
8450;SDS011;4262;50.980;13.892;2024-01-07T11:17:41;9.97;;;5.70;;
8450;SDS011;4262;50.980;13.892;2024-01-07T11:20:13;8.53;;;5.67;;
8450;SDS011;4262;50.980;13.892;2024-01-07T11:22:44;8.20;;;5.30;;
8450;SDS011;4262;50.980;13.892;2024-01-07T11:25:28;10.00;;;6.60;;
8450;SDS011;4262;50.980;13.892;2024-01-07T11:27:56;8.80;;;5.43;;
8450;SDS011;4262;50.980;13.892;2024-01-07T11:30:24;8.20;;;5.23;;
8450;SDS011;4262;50.980;13.892;2024-01-07T11:32:59;9.37;;;4.50;;
8450;SDS011;4262;50.980;13.892;2024-01-07T11:38:21;8.63;;;5.90;;
8450;SDS011;4262;50.980;13.892;2024-01-07T11:40:48;6.90;;;4.60;;
8450;SDS011;4262;50.980;13.892;2024-01-07T11:43:16;8.70;;;5.30;;
8450;SDS011;4262;50.980;13.892;2024-01-07T11:45:44;7.47;;;5.03;;
8450;SDS011;4262;50.980;13.892;2024-01-07T11:48:12;8.00;;;5.10;;
8450;SDS011;4262;50.980;13.892;2024-01-07T11:50:40;7.93;;;5.03;;
8450;SDS011;4262;50.980;13.892;2024-01-07T11:53:06;7.27;;;4.77;;
8450;SDS011;4262;50.980;13.892;2024-01-07T11:55:33;7.67;;;4.93;;
8450;SDS011;4262;50.980;13.892;2024-01-07T11:58:02;9.27;;;5.70;;
8450;SDS011;4262;50.980;13.892;2024-01-07T12:00:30;7.50;;;4.80;;
8450;SDS011;4262;50.980;13.892;2024-01-07T12:02:59;9.73;;;5.37;;
8450;SDS011;4262;50.980;13.892;2024-01-07T12:05:28;7.60;;;5.40;;
8450;SDS011;4262;50.980;13.892;2024-01-07T12:07:56;6.27;;;3.60;;
8450;SDS011;4262;50.980;13.892;2024-01-07T12:10:23;8.00;;;4.50;;
8450;SDS011;4262;50.980;13.892;2024-01-07T12:12:50;10.43;;;5.73;;
8450;SDS011;4262;50.980;13.892;2024-01-07T12:15:18;9.23;;;5.20;;
8450;SDS011;4262;50.980;13.892;2024-01-07T12:17:56;7.20;;;4.70;;
8450;SDS011;4262;50.980;13.892;2024-01-07T12:20:25;7.40;;;5.53;;
8450;SDS011;4262;50.980;13.892;2024-01-07T12:22:56;8.57;;;5.20;;
8450;SDS011;4262;50.980;13.892;2024-01-07T12:25:24;7.70;;;5.57;;
8450;SDS011;4262;50.980;13.892;2024-01-07T12:27:52;12.10;;;5.73;;
8450;SDS011;4262;50.980;13.892;2024-01-07T12:30:20;7.47;;;5.43;;
8450;SDS011;4262;50.980;13.892;2024-01-07T12:32:46;9.00;;;5.83;;
8450;SDS011;4262;50.980;13.892;2024-01-07T12:35:14;7.63;;;4.27;;
8450;SDS011;4262;50.980;13.892;2024-01-07T12:38:06;7.47;;;5.27;;
8450;SDS011;4262;50.980;13.892;2024-01-07T12:40:42;8.17;;;5.00;;
8450;SDS011;4262;50.980;13.892;2024-01-07T12:43:37;8.40;;;5.80;;
8450;SDS011;4262;50.980;13.892;2024-01-07T12:46:17;6.17;;;4.10;;
8450;SDS011;4262;50.980;13.892;2024-01-07T12:48:54;7.63;;;5.27;;
8450;SDS011;4262;50.980;13.892;2024-01-07T12:51:32;7.47;;;5.60;;
8450;SDS011;4262;50.980;13.892;2024-01-07T12:54:28;6.53;;;4.57;;
8450;SDS011;4262;50.980;13.892;2024-01-07T12:57:04;11.70;;;7.80;;
8450;SDS011;4262;50.980;13.892;2024-01-07T12:59:43;7.90;;;5.30;;
8450;SDS011;4262;50.980;13.892;2024-01-07T13:02:22;7.17;;;4.63;;
8450;SDS011;4262;50.980;13.892;2024-01-07T13:05:11;6.63;;;4.33;;
8450;SDS011;4262;50.980;13.892;2024-01-07T13:07:43;6.40;;;4.67;;
8450;SDS011;4262;50.980;13.892;2024-01-07T13:10:20;7.33;;;4.00;;
8450;SDS011;4262;50.980;13.892;2024-01-07T13:12:49;7.33;;;5.40;;
8450;SDS011;4262;50.980;13.892;2024-01-07T13:15:33;9.20;;;5.70;;
8450;SDS011;4262;50.980;13.892;2024-01-07T13:18:27;8.90;;;5.37;;
8450;SDS011;4262;50.980;13.892;2024-01-07T13:21:02;6.73;;;4.77;;
8450;SDS011;4262;50.980;13.892;2024-01-07T13:23:40;8.13;;;5.10;;
8450;SDS011;4262;50.980;13.892;2024-01-07T13:26:10;6.93;;;5.30;;
8450;SDS011;4262;50.980;13.892;2024-01-07T13:28:48;8.20;;;6.17;;
8450;SDS011;4262;50.980;13.892;2024-01-07T13:31:29;8.10;;;5.27;;
8450;SDS011;4262;50.980;13.892;2024-01-07T13:34:00;7.03;;;5.33;;
8450;SDS011;4262;50.980;13.892;2024-01-07T13:39:37;6.83;;;4.40;;
8450;SDS011;4262;50.980;13.892;2024-01-07T13:42:10;10.80;;;7.30;;
8450;SDS011;4262;50.980;13.892;2024-01-07T13:45:15;8.63;;;5.70;;
8450;SDS011;4262;50.980;13.892;2024-01-07T13:47:48;7.77;;;5.20;;
8450;SDS011;4262;50.980;13.892;2024-01-07T13:50:18;9.60;;;5.30;;
8450;SDS011;4262;50.980;13.892;2024-01-07T13:52:45;6.90;;;4.93;;
8450;SDS011;4262;50.980;13.892;2024-01-07T13:55:29;7.07;;;5.37;;
8450;SDS011;4262;50.980;13.892;2024-01-07T13:57:59;8.70;;;6.80;;
8450;SDS011;4262;50.980;13.892;2024-01-07T14:00:26;8.80;;;6.10;;
8450;SDS011;4262;50.980;13.892;2024-01-07T14:02:53;9.53;;;6.60;;
8450;SDS011;4262;50.980;13.892;2024-01-07T14:05:23;7.80;;;5.90;;
8450;SDS011;4262;50.980;13.892;2024-01-07T14:07:53;9.40;;;7.00;;
8450;SDS011;4262;50.980;13.892;2024-01-07T14:10:21;6.30;;;4.30;;
8450;SDS011;4262;50.980;13.892;2024-01-07T14:12:53;8.27;;;5.10;;
8450;SDS011;4262;50.980;13.892;2024-01-07T14:18:18;6.67;;;4.87;;
8450;SDS011;4262;50.980;13.892;2024-01-07T14:20:47;8.70;;;5.40;;
8450;SDS011;4262;50.980;13.892;2024-01-07T14:23:14;9.60;;;5.13;;
8450;SDS011;4262;50.980;13.892;2024-01-07T14:25:43;7.00;;;5.00;;
8450;SDS011;4262;50.980;13.892;2024-01-07T14:28:11;12.77;;;6.47;;
8450;SDS011;4262;50.980;13.892;2024-01-07T14:30:38;8.67;;;6.47;;
8450;SDS011;4262;50.980;13.892;2024-01-07T14:33:07;7.80;;;4.80;;
8450;SDS011;4262;50.980;13.892;2024-01-07T14:35:34;8.63;;;5.90;;
8450;SDS011;4262;50.980;13.892;2024-01-07T14:38:00;7.80;;;5.80;;
8450;SDS011;4262;50.980;13.892;2024-01-07T14:40:29;7.43;;;4.90;;
8450;SDS011;4262;50.980;13.892;2024-01-07T14:42:56;11.67;;;5.83;;
8450;SDS011;4262;50.980;13.892;2024-01-07T14:45:24;6.00;;;4.60;;
8450;SDS011;4262;50.980;13.892;2024-01-07T14:47:51;8.90;;;5.07;;
8450;SDS011;4262;50.980;13.892;2024-01-07T14:50:20;10.93;;;5.27;;
8450;SDS011;4262;50.980;13.892;2024-01-07T14:52:47;11.07;;;5.40;;
8450;SDS011;4262;50.980;13.892;2024-01-07T14:55:14;10.90;;;5.47;;
8450;SDS011;4262;50.980;13.892;2024-01-07T14:57:42;9.50;;;5.30;;
8450;SDS011;4262;50.980;13.892;2024-01-07T15:00:09;10.23;;;5.70;;
8450;SDS011;4262;50.980;13.892;2024-01-07T15:02:36;8.70;;;5.27;;
8450;SDS011;4262;50.980;13.892;2024-01-07T15:05:03;7.67;;;5.40;;
8450;SDS011;4262;50.980;13.892;2024-01-07T15:07:32;9.10;;;6.00;;
8450;SDS011;4262;50.980;13.892;2024-01-07T15:09:59;7.77;;;5.57;;